Time;durP1;ratioP1;P1;durP2;ratioP2;P2;SDS_P1;SDS_P2;PMS_P1;PMS_P2;Temp;Humidity;BMP_temperature;BMP_pressure;BME280_temperature;BME280_humidity;BME280_pressure;Samples;Min_cycle;Max_cycle;Signal;HPM_P1;HPM_P2
2023/05/28 00:04:29;;;;;;;1.50;1.40;;;22.70;56.90;;;;;;222288;1268;22631;-54
2023/05/28 00:09:34;;;;;;;1.40;1.30;;;22.60;56.50;;;;;;222389;1268;22639;-54
2023/05/28 00:14:38;;;;;;;1.40;1.30;;;22.70;56.50;;;;;;222443;1268;23978;-54
2023/05/28 00:19:43;;;;;;;1.10;1.10;;;22.60;56.50;;;;;;222179;1268;22791;-54
2023/05/28 00:24:47;;;;;;;1.60;1.50;;;22.60;56.50;;;;;;222544;1266;22511;-54
2023/05/28 00:29:51;;;;;;;1.90;1.60;;;22.60;57.00;;;;;;222552;1264;22540;-55
2023/05/28 00:34:56;;;;;;;1.50;1.40;;;22.60;56.30;;;;;;222384;1268;24362;-57
2023/05/28 00:40:00;;;;;;;1.40;1.30;;;22.60;56.40;;;;;;222771;1268;24267;-55
2023/05/28 00:45:05;;;;;;;2.00;1.30;;;22.60;56.40;;;;;;222322;1268;22519;-54
2023/05/28 00:50:12;;;;;;;1.40;1.30;;;22.50;56.70;;;;;;222486;1268;24240;-58
2023/05/28 00:55:17;;;;;;;1.40;1.30;;;22.50;56.40;;;;;;222573;1268;22632;-54
2023/05/28 01:00:21;;;;;;;1.40;1.30;;;22.50;56.40;;;;;;222609;1268;22590;-57
2023/05/28 01:05:26;;;;;;;1.40;1.30;;;22.50;56.80;;;;;;222442;1268;22563;-56
2023/05/28 01:10:32;;;;;;;1.70;1.60;;;22.50;56.30;;;;;;222399;1268;24511;-54
2023/05/28 01:15:37;;;;;;;1.50;1.40;;;22.40;56.40;;;;;;222600;1268;23588;-54
2023/05/28 01:20:41;;;;;;;2.00;1.50;;;22.40;56.40;;;;;;222332;1268;24247;-55
2023/05/28 01:25:51;;;;;;;1.40;1.30;;;22.50;56.40;;;;;;222561;1256;23880;-54
2023/05/28 01:30:55;;;;;;;1.50;1.30;;;22.40;56.50;;;;;;222552;1268;22520;-55
2023/05/28 01:36:00;;;;;;;1.50;1.40;;;22.40;56.10;;;;;;222301;1268;22508;-53
2023/05/28 01:41:06;;;;;;;1.40;1.30;;;22.30;56.60;;;;;;222610;1267;22557;-54
2023/05/28 01:46:10;;;;;;;1.30;1.30;;;22.30;56.70;;;;;;222581;1268;22647;-52
2023/05/28 01:51:22;;;;;;;2.20;2.00;;;22.30;56.60;;;;;;222539;1266;22510;-56
2023/05/28 01:56:26;;;;;;;1.60;1.50;;;22.30;56.90;;;;;;222625;1268;22514;-55
2023/05/28 02:01:32;;;;;;;1.50;1.40;;;22.20;56.40;;;;;;222338;1268;22502;-53
2023/05/28 02:06:40;;;;;;;1.10;1.10;;;22.20;56.60;;;;;;222346;1268;24354;-55
2023/05/28 02:11:44;;;;;;;1.60;1.50;;;22.20;56.70;;;;;;222426;1267;255636;-54
2023/05/28 02:16:49;;;;;;;1.50;1.40;;;22.20;56.70;;;;;;222584;1268;22620;-53
2023/05/28 02:21:53;;;;;;;1.50;1.40;;;22.10;57.00;;;;;;222524;1268;22655;-54
2023/05/28 02:26:58;;;;;;;1.30;1.20;;;22.20;56.70;;;;;;222265;1268;23896;-52
2023/05/28 02:32:03;;;;;;;1.50;1.40;;;22.10;56.60;;;;;;222558;1268;25278;-52
2023/05/28 02:37:07;;;;;;;1.50;1.40;;;22.10;56.80;;;;;;222610;1268;22599;-54
2023/05/28 02:42:11;;;;;;;1.80;1.70;;;22.10;56.90;;;;;;222367;1268;22633;-57
2023/05/28 02:47:16;;;;;;;1.30;1.20;;;22.10;56.60;;;;;;222670;1250;22514;-55
2023/05/28 02:52:20;;;;;;;2.60;1.60;;;22.10;56.60;;;;;;222597;1268;22510;-54
2023/05/28 02:57:24;;;;;;;1.40;1.30;;;22.00;56.90;;;;;;222351;1268;22517;-54
2023/05/28 03:02:28;;;;;;;1.50;1.40;;;22.00;56.60;;;;;;222389;1268;23019;-56
2023/05/28 03:07:32;;;;;;;1.50;1.40;;;22.00;56.60;;;;;;222444;1268;22507;-54
2023/05/28 03:12:37;;;;;;;1.40;1.30;;;22.00;57.00;;;;;;222417;1268;22821;-58
2023/05/28 03:17:41;;;;;;;1.40;1.30;;;22.00;56.60;;;;;;222548;1246;22637;-55
2023/05/28 03:22:49;;;;;;;1.40;1.30;;;22.00;56.60;;;;;;222507;1268;22605;-54
2023/05/28 03:27:54;;;;;;;1.60;1.50;;;22.00;56.60;;;;;;222547;1260;24230;-56
2023/05/28 03:33:03;;;;;;;1.10;1.10;;;21.90;56.60;;;;;;222389;1268;22529;-55
2023/05/28 03:38:07;;;;;;;1.20;1.10;;;22.00;56.60;;;;;;222233;1269;22517;-53
2023/05/28 03:43:12;;;;;;;1.30;1.20;;;22.00;56.90;;;;;;222122;1265;23184;-54
2023/05/28 03:48:16;;;;;;;1.50;1.40;;;21.90;56.90;;;;;;221928;1269;22533;-55
2023/05/28 03:53:21;;;;;;;1.60;1.50;;;21.90;56.60;;;;;;222167;1269;24229;-52
2023/05/28 03:58:25;;;;;;;1.60;1.50;;;21.90;56.50;;;;;;222347;1268;22563;-54
2023/05/28 04:03:29;;;;;;;1.40;1.30;;;21.90;56.50;;;;;;222557;1268;22751;-55
2023/05/28 04:08:34;;;;;;;1.50;1.40;;;21.90;56.50;;;;;;222832;1268;22508;-55
2023/05/28 04:13:39;;;;;;;1.40;1.30;;;21.90;56.40;;;;;;222437;1268;22655;-57
2023/05/28 04:18:43;;;;;;;1.70;1.50;;;21.90;57.10;;;;;;222618;1260;22682;-51
2023/05/28 04:23:48;;;;;;;1.50;1.40;;;21.90;56.50;;;;;;222612;1268;22533;-53
2023/05/28 04:28:52;;;;;;;1.40;1.30;;;21.90;56.50;;;;;;222650;1266;24238;-58
2023/05/28 04:33:56;;;;;;;1.60;1.50;;;21.90;56.50;;;;;;222695;1268;22523;-54
2023/05/28 04:39:01;;;;;;;1.60;1.50;;;21.80;56.40;;;;;;222355;1268;22522;-56
2023/05/28 04:44:06;;;;;;;1.30;1.20;;;21.90;56.50;;;;;;222483;1268;22589;-54
2023/05/28 04:49:12;;;;;;;1.50;1.40;;;21.80;56.30;;;;;;222612;1268;22620;-54
2023/05/28 04:54:16;;;;;;;1.20;1.10;;;21.80;56.40;;;;;;222515;1268;24042;-53
2023/05/28 04:59:20;;;;;;;1.40;1.30;;;21.90;56.40;;;;;;222530;1268;23927;-54
2023/05/28 05:04:25;;;;;;;1.40;1.30;;;21.80;56.30;;;;;;222517;1268;23881;-58
2023/05/28 05:09:30;;;;;;;1.50;1.40;;;21.80;56.30;;;;;;222658;1268;23143;-52
2023/05/28 05:14:35;;;;;;;1.20;1.10;;;21.80;56.30;;;;;;222545;1268;23886;-57
2023/05/28 05:19:39;;;;;;;1.50;1.40;;;21.80;56.20;;;;;;222493;1268;22875;-54
2023/05/28 05:24:47;;;;;;;1.20;1.10;;;21.90;56.30;;;;;;222698;1268;22526;-53
2023/05/28 05:29:51;;;;;;;1.40;1.30;;;21.80;56.60;;;;;;222435;1268;24240;-53
2023/05/28 05:34:55;;;;;;;1.50;1.40;;;21.90;56.20;;;;;;222444;1268;22512;-57
2023/05/28 05:40:18;;;;;;;1.30;1.20;;;21.90;56.10;;;;;;222509;1268;22554;-53
2023/05/28 05:45:36;;;;;;;1.40;1.30;;;21.90;56.10;;;;;;222570;1268;23878;-52
2023/05/28 05:50:51;;;;;;;1.60;1.50;;;21.90;56.10;;;;;;222651;1268;22518;-55
2023/05/28 05:55:55;;;;;;;1.50;1.30;;;21.90;56.00;;;;;;222468;1268;23109;-58
2023/05/28 06:01:00;;;;;;;1.30;1.20;;;21.90;56.00;;;;;;221935;1269;22811;-54
2023/05/28 06:06:06;;;;;;;1.30;1.30;;;21.90;55.60;;;;;;222029;1269;25224;-54
2023/05/28 06:11:49;;;;;;;1.60;1.50;;;21.90;55.80;;;;;;221095;1275;22516;-54
2023/05/28 06:16:54;;;;;;;1.50;1.40;;;22.00;55.80;;;;;;222051;1269;24111;-53
2023/05/28 06:21:58;;;;;;;1.10;1.10;;;22.00;55.80;;;;;;222102;1269;22578;-58
2023/05/28 06:27:03;;;;;;;1.60;1.50;;;22.00;55.70;;;;;;222190;1269;24218;-55
2023/05/28 06:32:07;;;;;;;1.50;1.40;;;22.00;55.80;;;;;;222762;1264;22505;-54
2023/05/28 06:37:12;;;;;;;1.40;1.30;;;21.90;55.60;;;;;;222496;1269;22536;-54
2023/05/28 06:42:17;;;;;;;1.40;1.30;;;22.00;56.30;;;;;;222407;1264;23147;-52
2023/05/28 06:47:42;;;;;;;1.30;1.20;;;22.00;55.60;;;;;;222192;1253;22517;-54
2023/05/28 06:52:46;;;;;;;1.40;1.30;;;22.00;55.50;;;;;;222334;1248;23939;-55
2023/05/28 06:57:50;;;;;;;1.30;1.20;;;22.10;55.30;;;;;;222463;1269;22540;-54
2023/05/28 07:03:08;;;;;;;1.40;1.30;;;22.10;55.30;;;;;;222187;1269;22495;-55
2023/05/28 07:08:27;;;;;;;1.70;1.40;;;22.10;55.20;;;;;;222087;1269;24207;-54
2023/05/28 07:13:31;;;;;;;1.50;1.40;;;22.20;55.20;;;;;;222447;1269;22716;-53
2023/05/28 07:18:35;;;;;;;1.20;1.10;;;22.10;55.00;;;;;;222711;1269;22598;-50
2023/05/28 07:23:40;;;;;;;1.20;1.20;;;22.10;55.60;;;;;;222489;1269;22553;-53
2023/05/28 07:28:44;;;;;;;1.40;1.30;;;22.20;54.90;;;;;;222440;1264;22679;-55
2023/05/28 07:33:50;;;;;;;1.30;1.20;;;22.20;55.30;;;;;;222616;1268;22529;-55
2023/05/28 07:38:55;;;;;;;1.30;1.20;;;22.20;54.90;;;;;;222851;1268;24340;-55
2023/05/28 07:44:00;;;;;;;1.30;1.20;;;22.20;54.80;;;;;;222361;1268;23921;-53
2023/05/28 07:49:04;;;;;;;1.30;1.20;;;22.20;54.90;;;;;;223095;1267;22528;-52
2023/05/28 07:54:18;;;;;;;1.50;1.40;;;22.30;55.70;;;;;;222517;1268;22508;-55
2023/05/28 07:59:23;;;;;;;0.90;0.90;;;22.30;54.90;;;;;;222307;1268;22536;-57
2023/05/28 08:04:28;;;;;;;1.30;1.10;;;22.30;55.20;;;;;;222684;1268;22518;-52
2023/05/28 08:09:33;;;;;;;1.20;1.10;;;22.40;55.10;;;;;;222753;1254;22578;-55
2023/05/28 08:14:38;;;;;;;1.30;1.20;;;22.30;54.70;;;;;;222778;1264;25367;-53
2023/05/28 08:19:45;;;;;;;1.50;1.10;;;22.30;55.00;;;;;;222706;1268;25300;-53
2023/05/28 08:25:26;;;;;;;1.30;1.20;;;22.40;54.90;;;;;;222600;1267;22509;-53
2023/05/28 08:30:37;;;;;;;;;;;22.50;54.60;;;;;;222758;1267;22741;-55
2023/05/28 08:35:56;;;;;;;1.60;1.50;;;22.50;54.70;;;;;;222336;1268;22512;-54
2023/05/28 08:41:02;;;;;;;1.40;1.30;;;22.50;54.50;;;;;;222408;1268;23168;-55
2023/05/28 08:46:07;;;;;;;1.50;1.40;;;22.50;54.60;;;;;;222498;1268;24069;-52
2023/05/28 08:51:19;;;;;;;1.30;1.20;;;22.60;54.50;;;;;;222506;1266;22638;-54
2023/05/28 08:56:24;;;;;;;1.30;1.20;;;22.60;54.40;;;;;;222474;1266;22522;-53
2023/05/28 09:01:28;;;;;;;1.40;1.20;;;22.60;54.40;;;;;;222817;1268;22522;-53
2023/05/28 09:06:45;;;;;;;1.30;1.20;;;22.60;54.80;;;;;;222415;1268;22763;-55
2023/05/28 09:12:07;;;;;;;2.50;1.20;;;22.60;54.40;;;;;;222239;1268;24345;-55
2023/05/28 09:17:13;;;;;;;1.50;1.40;;;22.60;54.40;;;;;;222559;1268;24221;-55
2023/05/28 09:22:19;;;;;;;1.40;1.30;;;22.60;54.40;;;;;;222553;1246;24184;-54
2023/05/28 09:27:46;;;;;;;1.60;1.40;;;22.60;54.50;;;;;;222652;1268;22508;-54
2023/05/28 09:33:05;;;;;;;1.20;1.10;;;22.70;54.40;;;;;;222352;1257;23909;-54
2023/05/28 09:38:12;;;;;;;1.10;1.00;;;22.70;54.50;;;;;;222320;1269;23235;-55
2023/05/28 09:43:17;;;;;;;1.00;1.00;;;22.70;54.40;;;;;;222341;1269;22518;-57
2023/05/28 09:48:20;;;;;;;1.00;1.00;;;22.70;54.80;;;;;;222306;1269;24334;-51
2023/05/28 09:53:26;;;;;;;1.60;1.50;;;22.80;54.40;;;;;;222367;1246;22526;-51
2023/05/28 09:58:34;;;;;;;1.20;1.10;;;22.80;54.30;;;;;;222518;1263;24345;-54
2023/05/28 10:03:43;;;;;;;0.90;0.90;;;22.80;54.30;;;;;;222540;1269;22606;-52
2023/05/28 10:08:53;;;;;;;1.20;1.20;;;22.80;54.30;;;;;;222596;1269;23662;-54
2023/05/28 10:13:58;;;;;;;1.20;1.10;;;22.80;54.30;;;;;;222522;1269;24427;-54
2023/05/28 10:19:02;;;;;;;2.50;1.20;;;22.80;54.20;;;;;;222297;1264;23917;-53
2023/05/28 10:24:07;;;;;;;1.00;0.90;;;22.90;54.20;;;;;;222388;1269;22577;-57
2023/05/28 10:29:11;;;;;;;1.20;1.20;;;22.90;54.20;;;;;;222551;1266;25124;-50
2023/05/28 10:34:16;;;;;;;1.30;1.10;;;22.90;54.10;;;;;;222841;1268;25255;-53
2023/05/28 10:39:20;;;;;;;1.30;1.20;;;22.90;54.20;;;;;;222758;1268;23248;-53
2023/05/28 10:44:25;;;;;;;1.00;1.00;;;22.90;54.10;;;;;;222722;1268;24042;-54
2023/05/28 10:49:29;;;;;;;0.90;0.90;;;23.00;54.10;;;;;;222783;1268;24428;-54
2023/05/28 10:54:33;;;;;;;1.10;1.00;;;23.00;54.10;;;;;;222516;1268;24339;-53
2023/05/28 11:00:00;;;;;;;1.10;1.00;;;23.00;54.00;;;;;;222725;1268;24088;-54
2023/05/28 11:05:05;;;;;;;0.80;0.80;;;23.00;54.00;;;;;;222614;1267;24246;-54
2023/05/28 11:10:15;;;;;;;1.10;1.00;;;23.10;54.00;;;;;;222767;1244;22546;-54
2023/05/28 11:15:21;;;;;;;1.30;1.20;;;23.10;54.00;;;;;;222620;1268;25844;-51
2023/05/28 11:20:27;;;;;;;1.40;1.30;;;23.10;53.90;;;;;;222594;1268;22521;-51
2023/05/28 11:25:31;;;;;;;1.10;1.00;;;23.10;54.10;;;;;;222575;1268;25681;-52
2023/05/28 11:30:35;;;;;;;1.00;1.00;;;23.20;53.80;;;;;;222448;1268;25393;-50
2023/05/28 11:35:42;;;;;;;1.30;1.20;;;23.20;53.80;;;;;;222536;1268;24244;-53
2023/05/28 11:40:46;;;;;;;0.90;0.90;;;23.30;53.80;;;;;;222425;1268;25361;-52
2023/05/28 11:45:53;;;;;;;1.20;1.10;;;23.30;53.80;;;;;;222478;1268;22716;-54
2023/05/28 11:51:00;;;;;;;1.30;1.20;;;23.30;53.70;;;;;;222598;1268;22525;-55
2023/05/28 11:56:06;;;;;;;1.20;1.10;;;23.30;53.70;;;;;;222655;1262;22513;-52
2023/05/28 12:01:17;;;;;;;0.80;0.80;;;23.40;54.10;;;;;;222597;1252;24311;-51
2023/05/28 12:06:21;;;;;;;1.00;1.00;;;23.40;53.70;;;;;;222597;1268;25401;-54
2023/05/28 12:11:42;;;;;;;1.20;1.10;;;23.40;53.70;;;;;;222632;1268;25269;-53
2023/05/28 12:16:47;;;;;;;1.10;1.00;;;23.40;53.70;;;;;;222239;1268;24444;-53
2023/05/28 12:21:52;;;;;;;1.00;1.00;;;23.40;53.70;;;;;;222441;1266;24741;-49
2023/05/28 12:26:56;;;;;;;1.00;1.00;;;23.40;53.80;;;;;;222171;1268;22878;-53
2023/05/28 12:32:01;;;;;;;1.20;1.20;;;23.40;53.70;;;;;;222478;1268;22627;-52
2023/05/28 12:37:05;;;;;;;1.00;1.00;;;23.40;54.00;;;;;;222441;1268;22641;-51
2023/05/28 12:42:10;;;;;;;0.90;0.90;;;23.40;53.80;;;;;;222580;1266;24260;-52
2023/05/28 12:47:14;;;;;;;1.10;0.80;;;23.40;53.80;;;;;;222791;1262;22511;-50
2023/05/28 12:52:18;;;;;;;1.10;1.00;;;23.40;54.30;;;;;;222416;1268;22504;-51
2023/05/28 12:57:22;;;;;;;1.30;1.20;;;23.40;53.70;;;;;;222478;1267;25347;-49
2023/05/28 13:02:26;;;;;;;1.40;1.00;;;23.40;53.80;;;;;;222483;1268;22513;-54
2023/05/28 13:07:30;;;;;;;0.90;0.90;;;23.40;53.80;;;;;;222387;1268;24219;-51
2023/05/28 13:12:36;;;;;;;1.30;0.90;;;23.40;53.80;;;;;;222512;1268;24204;-52
2023/05/28 13:17:40;;;;;;;1.20;1.10;;;23.50;53.80;;;;;;222762;1264;22520;-50
2023/05/28 13:22:44;;;;;;;1.10;1.00;;;23.50;54.20;;;;;;222241;1244;22575;-51
2023/05/28 13:27:50;;;;;;;1.20;1.10;;;23.40;53.80;;;;;;222442;1268;22517;-56
2023/05/28 13:32:54;;;;;;;1.10;0.80;;;23.50;54.30;;;;;;222501;1252;22514;-52
2023/05/28 13:37:58;;;;;;;1.00;1.00;;;23.50;54.00;;;;;;222660;1266;23143;-53
2023/05/28 13:43:03;;;;;;;0.80;0.80;;;23.50;53.80;;;;;;222482;1268;22537;-53
2023/05/28 13:48:07;;;;;;;0.70;0.70;;;23.50;54.00;;;;;;222723;1265;22517;-52
2023/05/28 13:53:11;;;;;;;0.80;0.80;;;23.50;54.20;;;;;;222202;1268;25211;-53
2023/05/28 13:58:15;;;;;;;0.90;0.90;;;23.50;54.00;;;;;;222276;1268;22523;-52
2023/05/28 14:03:19;;;;;;;1.00;0.90;;;23.50;54.40;;;;;;222190;1244;22533;-54
2023/05/28 14:08:24;;;;;;;0.90;0.90;;;23.50;54.00;;;;;;222350;1268;24343;-51
2023/05/28 14:13:31;;;;;;;1.20;1.10;;;23.50;53.90;;;;;;222208;1268;215698;-55
2023/05/28 14:18:35;;;;;;;0.90;0.90;;;23.50;54.00;;;;;;222382;1268;24266;-53
2023/05/28 14:23:39;;;;;;;0.90;0.90;;;23.50;54.10;;;;;;222652;1268;22814;-52
2023/05/28 14:28:43;;;;;;;0.80;0.80;;;23.50;54.10;;;;;;222391;1262;24075;-52
2023/05/28 14:33:48;;;;;;;0.90;0.90;;;23.50;54.10;;;;;;222592;1267;22515;-53
2023/05/28 14:38:52;;;;;;;0.70;0.70;;;23.60;54.10;;;;;;222617;1268;25468;-55
2023/05/28 14:43:56;;;;;;;1.00;1.00;;;23.50;54.20;;;;;;222403;1268;22660;-52
2023/05/28 14:49:00;;;;;;;1.00;1.00;;;23.50;54.00;;;;;;222540;1268;24193;-54
2023/05/28 14:54:04;;;;;;;0.70;0.70;;;23.50;54.10;;;;;;222627;1268;22522;-51
2023/05/28 14:59:08;;;;;;;0.80;0.80;;;23.50;54.40;;;;;;222639;1267;24167;-53
2023/05/28 15:04:13;;;;;;;1.70;1.50;;;23.50;54.30;;;;;;222416;1263;24166;-53
2023/05/28 15:09:17;;;;;;;1.10;1.10;;;23.50;54.40;;;;;;222617;1268;22511;-53
2023/05/28 15:14:26;;;;;;;0.90;0.90;;;23.50;54.40;;;;;;222516;1263;24352;-54
2023/05/28 15:19:30;;;;;;;0.60;0.60;;;23.50;54.70;;;;;;222457;1268;24354;-55
2023/05/28 15:24:34;;;;;;;0.60;0.60;;;23.50;54.80;;;;;;222780;1264;22590;-55
2023/05/28 15:29:43;;;;;;;0.70;0.70;;;23.50;54.90;;;;;;222659;1261;22524;-55
2023/05/28 15:34:47;;;;;;;1.30;0.70;;;23.50;55.00;;;;;;222662;1268;24121;-53
2023/05/28 15:39:52;;;;;;;0.70;0.70;;;23.40;54.70;;;;;;222571;1268;23142;-52
2023/05/28 15:44:56;;;;;;;0.80;0.80;;;23.50;54.80;;;;;;222745;1266;24289;-54
2023/05/28 15:50:03;;;;;;;1.00;0.80;;;23.50;54.90;;;;;;222663;1267;24065;-55
2023/05/28 15:55:07;;;;;;;1.70;1.10;;;23.40;54.90;;;;;;222635;1268;25317;-52
2023/05/28 16:00:12;;;;;;;1.10;1.10;;;23.40;54.90;;;;;;222839;1268;22634;-51
2023/05/28 16:05:17;;;;;;;1.10;1.00;;;23.40;55.10;;;;;;222776;1268;22580;-54
2023/05/28 16:10:22;;;;;;;1.00;0.90;;;23.40;55.40;;;;;;222566;1265;22552;-53
2023/05/28 16:15:29;;;;;;;0.80;0.80;;;23.40;55.40;;;;;;222739;1267;22633;-51
2023/05/28 16:20:34;;;;;;;1.00;0.90;;;23.40;55.00;;;;;;222524;1268;24196;-56
2023/05/28 16:25:39;;;;;;;0.80;0.80;;;23.40;55.10;;;;;;222585;1268;25341;-54
2023/05/28 16:30:43;;;;;;;1.00;1.00;;;23.40;55.00;;;;;;222707;1265;24367;-53
2023/05/28 16:35:48;;;;;;;0.70;0.70;;;23.40;55.10;;;;;;222233;1269;25207;-55
2023/05/28 16:40:52;;;;;;;0.70;0.70;;;23.40;55.20;;;;;;222347;1265;25342;-55
2023/05/28 16:45:58;;;;;;;0.80;0.80;;;23.30;54.80;;;;;;222266;1268;22515;-52
2023/05/28 16:51:04;;;;;;;0.80;0.80;;;23.30;54.70;;;;;;222301;1265;24287;-52
2023/05/28 16:56:08;;;;;;;1.10;1.00;;;23.30;54.80;;;;;;222529;1265;25215;-49
2023/05/28 17:01:12;;;;;;;1.20;0.90;;;23.40;54.80;;;;;;222174;1269;22675;-55
2023/05/28 17:06:17;;;;;;;0.80;0.80;;;23.30;54.60;;;;;;222269;1269;25252;-52
2023/05/28 17:11:21;;;;;;;0.70;0.70;;;23.30;54.60;;;;;;222298;1265;22638;-53
2023/05/28 17:16:25;;;;;;;0.70;0.70;;;23.30;54.50;;;;;;222037;1268;22514;-56
2023/05/28 17:21:30;;;;;;;1.30;0.90;;;23.30;54.50;;;;;;222176;1269;22747;-54
2023/05/28 17:26:34;;;;;;;1.10;0.70;;;23.30;54.50;;;;;;222089;1268;22658;-55
2023/05/28 17:31:38;;;;;;;0.80;0.80;;;23.30;54.20;;;;;;222548;1268;23878;-52
2023/05/28 17:36:43;;;;;;;0.70;0.70;;;23.30;54.30;;;;;;222495;1268;22511;-51
2023/05/28 17:41:47;;;;;;;0.90;0.90;;;23.40;54.20;;;;;;222588;1268;22625;-55
2023/05/28 17:46:53;;;;;;;0.70;0.70;;;23.30;54.30;;;;;;222524;1268;22522;-48
2023/05/28 17:51:57;;;;;;;1.10;0.70;;;23.30;54.30;;;;;;222767;1266;25377;-50
2023/05/28 17:57:01;;;;;;;1.00;1.00;;;23.30;54.40;;;;;;222712;1268;22761;-56
2023/05/28 18:02:06;;;;;;;0.90;0.90;;;23.30;54.20;;;;;;222333;1246;22649;-53
2023/05/28 18:07:10;;;;;;;0.80;0.80;;;23.30;54.10;;;;;;222396;1268;22599;-53
2023/05/28 18:12:15;;;;;;;0.80;0.80;;;23.30;54.30;;;;;;222399;1268;22651;-54
2023/05/28 18:17:23;;;;;;;0.70;0.70;;;23.30;54.60;;;;;;222592;1268;22878;-52
2023/05/28 18:22:28;;;;;;;0.80;0.80;;;23.20;54.60;;;;;;222513;1268;22514;-55
2023/05/28 18:27:33;;;;;;;1.00;0.90;;;23.20;54.70;;;;;;222652;1268;24254;-58
2023/05/28 18:32:37;;;;;;;0.80;0.80;;;23.20;54.60;;;;;;222342;1268;22629;-54
2023/05/28 18:37:41;;;;;;;1.80;0.90;;;23.20;54.60;;;;;;222687;1268;22644;-51
2023/05/28 18:42:45;;;;;;;0.90;0.80;;;23.20;54.50;;;;;;222422;1268;24315;-54
2023/05/28 18:47:49;;;;;;;0.70;0.70;;;23.20;54.70;;;;;;222539;1267;22521;-52
2023/05/28 18:52:54;;;;;;;2.20;0.90;;;23.20;54.90;;;;;;222619;1268;24204;-53
2023/05/28 18:57:58;;;;;;;0.60;0.60;;;23.20;54.80;;;;;;222515;1268;25470;-51
2023/05/28 19:03:06;;;;;;;0.70;0.70;;;23.20;54.80;;;;;;222299;1268;22586;-53
2023/05/28 19:08:10;;;;;;;0.80;0.80;;;23.10;54.70;;;;;;222272;1268;25491;-55
2023/05/28 19:13:15;;;;;;;0.90;0.90;;;23.10;54.90;;;;;;222624;1268;23517;-52
2023/05/28 19:18:19;;;;;;;0.80;0.80;;;23.10;54.90;;;;;;222428;1268;22526;-54
2023/05/28 19:23:24;;;;;;;0.70;0.70;;;23.10;54.90;;;;;;222674;1247;22728;-52
2023/05/28 19:28:28;;;;;;;1.30;1.10;;;23.10;54.90;;;;;;222812;1268;22785;-54
2023/05/28 19:33:33;;;;;;;0.90;0.90;;;23.10;54.90;;;;;;222293;1269;26726;-55
2023/05/28 19:38:37;;;;;;;0.80;0.80;;;23.00;55.00;;;;;;222268;1269;22527;-52
2023/05/28 19:43:41;;;;;;;0.70;0.70;;;23.00;55.20;;;;;;222218;1269;24335;-52
2023/05/28 19:48:48;;;;;;;0.70;0.70;;;23.00;54.90;;;;;;222123;1269;22528;-52
2023/05/28 19:53:53;;;;;;;1.00;1.00;;;23.00;54.80;;;;;;222347;1253;23895;-51
2023/05/28 19:58:57;;;;;;;0.70;0.70;;;23.00;54.90;;;;;;222177;1269;25454;-52
2023/05/28 20:04:02;;;;;;;0.80;0.80;;;23.00;55.10;;;;;;222545;1269;24248;-53
2023/05/28 20:09:07;;;;;;;1.10;1.00;;;23.00;54.90;;;;;;222490;1269;23989;-52
2023/05/28 20:14:12;;;;;;;0.90;0.90;;;23.00;55.00;;;;;;222287;1269;25634;-54
2023/05/28 20:19:23;;;;;;;2.40;0.90;;;23.00;55.00;;;;;;222253;1269;22532;-53
2023/05/28 20:24:28;;;;;;;1.30;1.00;;;23.00;55.00;;;;;;222243;1268;25379;-52
2023/05/28 20:29:33;;;;;;;1.60;1.10;;;22.90;55.10;;;;;;222233;1268;22655;-48
2023/05/28 20:34:40;;;;;;;1.20;1.10;;;22.90;55.10;;;;;;222672;1268;25550;-50
2023/05/28 20:39:44;;;;;;;2.10;0.90;;;22.90;55.10;;;;;;222498;1268;25444;-52
2023/05/28 20:44:49;;;;;;;0.90;0.90;;;22.90;55.10;;;;;;222706;1268;22518;-54
2023/05/28 20:49:53;;;;;;;1.00;1.00;;;22.90;55.20;;;;;;222595;1268;22569;-53
2023/05/28 20:54:57;;;;;;;1.30;1.10;;;22.90;55.20;;;;;;222481;1268;24247;-51
2023/05/28 21:00:04;;;;;;;0.90;0.90;;;22.90;55.20;;;;;;222306;1269;22515;-54
2023/05/28 21:05:09;;;;;;;1.00;0.90;;;22.90;55.20;;;;;;222205;1269;22570;-52
2023/05/28 21:10:13;;;;;;;0.70;0.70;;;22.80;55.20;;;;;;222392;1245;22651;-53
2023/05/28 21:15:17;;;;;;;0.90;0.90;;;22.90;55.30;;;;;;222433;1269;22768;-53
2023/05/28 21:20:22;;;;;;;0.90;0.90;;;22.80;55.30;;;;;;222184;1269;22566;-51
2023/05/28 21:25:26;;;;;;;3.30;0.90;;;22.80;55.40;;;;;;222125;1269;25262;-53
2023/05/28 21:30:30;;;;;;;1.60;1.00;;;22.80;55.30;;;;;;222246;1268;25340;-55
2023/05/28 21:35:34;;;;;;;0.90;0.90;;;22.80;55.30;;;;;;222355;1268;24369;-53
2023/05/28 21:40:39;;;;;;;1.10;1.00;;;22.70;55.30;;;;;;222539;1268;24406;-55
2023/05/28 21:45:45;;;;;;;0.80;0.80;;;22.70;55.30;;;;;;222424;1268;22621;-58
2023/05/28 21:50:49;;;;;;;1.20;1.10;;;22.70;55.30;;;;;;222529;1268;24245;-50
2023/05/28 21:55:53;;;;;;;0.90;0.90;;;22.70;55.40;;;;;;222655;1263;23512;-53
2023/05/28 22:00:58;;;;;;;1.00;1.00;;;22.80;55.50;;;;;;222721;1265;22495;-50
2023/05/28 22:06:02;;;;;;;1.00;0.90;;;22.70;55.40;;;;;;222361;1268;22626;-53
2023/05/28 22:11:06;;;;;;;1.20;1.10;;;22.70;55.40;;;;;;222617;1268;22514;-51
2023/05/28 22:16:11;;;;;;;0.80;0.80;;;22.70;55.20;;;;;;222932;1268;22527;-52
2023/05/28 22:21:16;;;;;;;1.60;1.20;;;22.70;55.80;;;;;;222330;1268;25271;-52
2023/05/28 22:26:21;;;;;;;1.10;1.00;;;22.70;55.60;;;;;;222706;1266;22515;-52
2023/05/28 22:31:26;;;;;;;1.00;1.00;;;22.70;55.50;;;;;;222279;1269;22667;-52
2023/05/28 22:36:30;;;;;;;1.00;1.00;;;22.70;55.50;;;;;;222198;1269;22518;-52
2023/05/28 22:41:34;;;;;;;0.90;0.90;;;22.70;55.50;;;;;;222398;1269;23890;-52
2023/05/28 22:46:39;;;;;;;1.10;1.00;;;22.70;55.50;;;;;;222190;1269;22632;-55
2023/05/28 22:51:47;;;;;;;0.80;0.80;;;22.70;55.60;;;;;;222122;1269;22654;-50
2023/05/28 22:56:52;;;;;;;1.00;0.90;;;22.70;55.50;;;;;;222096;1269;22544;-52
2023/05/28 23:01:56;;;;;;;0.80;0.80;;;22.70;55.50;;;;;;222010;1269;25382;-54
2023/05/28 23:07:00;;;;;;;1.00;1.00;;;22.60;55.50;;;;;;222141;1269;22671;-53
2023/05/28 23:12:05;;;;;;;0.90;0.80;;;22.60;55.50;;;;;;222076;1269;22734;-51
2023/05/28 23:17:09;;;;;;;0.90;0.90;;;22.60;55.50;;;;;;222094;1269;25277;-52
2023/05/28 23:22:13;;;;;;;1.00;0.90;;;22.60;55.60;;;;;;222136;1269;22527;-53
2023/05/28 23:27:17;;;;;;;0.90;0.90;;;22.60;55.60;;;;;;222150;1269;22636;-55
2023/05/28 23:32:22;;;;;;;0.70;0.70;;;22.60;55.60;;;;;;222276;1268;24216;-54
2023/05/28 23:37:26;;;;;;;1.00;1.00;;;22.60;55.60;;;;;;222402;1268;22645;-52
2023/05/28 23:42:30;;;;;;;1.30;0.80;;;22.60;55.60;;;;;;222676;1268;24254;-51
2023/05/28 23:47:35;;;;;;;1.80;0.90;;;22.50;55.60;;;;;;222270;1268;23912;-52
2023/05/28 23:52:39;;;;;;;1.10;1.00;;;22.60;55.50;;;;;;222680;1268;22511;-55
2023/05/28 23:57:43;;;;;;;1.20;1.10;;;22.60;55.50;;;;;;222416;1268;23946;-51
